createdAt,value
2019-05-26T00:22:07.013Z,7.72
2019-05-26T00:52:09.639Z,10.40
2019-05-26T01:22:12.245Z,14.98
2019-05-26T01:52:14.859Z,11.83
2019-05-26T02:22:17.515Z,20.10
2019-05-26T02:52:20.321Z,13.78
2019-05-26T03:22:22.935Z,16.10
2019-05-26T03:52:25.564Z,20.85
2019-05-26T04:22:28.175Z,17.50
2019-05-26T04:52:30.794Z,20.43
2019-05-26T05:22:33.408Z,11.85
2019-05-26T05:52:36.014Z,7.83
2019-05-26T06:22:38.628Z,3.65
2019-05-26T06:52:41.268Z,7.45
2019-05-26T07:22:46.551Z,6.87
2019-05-26T07:52:49.165Z,13.18
2019-05-26T08:22:51.878Z,10.05
2019-05-26T08:52:54.557Z,10.68
2019-05-26T09:22:57.169Z,7.80
2019-05-26T09:52:59.780Z,7.60
2019-05-26T10:23:02.425Z,6.55
2019-05-26T10:53:05.089Z,13.40
2019-05-26T11:23:07.738Z,5.95
2019-05-26T11:53:10.372Z,2.92
2019-05-26T12:23:12.990Z,4.92
2019-05-26T12:53:15.867Z,3.00
2019-05-26T13:23:18.486Z,2.05
2019-05-26T13:53:21.293Z,3.22
2019-05-26T14:23:23.909Z,4.53
2019-05-26T14:53:26.574Z,2.62
2019-05-26T15:23:29.181Z,2.37
2019-05-26T15:53:31.793Z,1.85
2019-05-26T16:23:34.509Z,4.53
2019-05-26T16:53:37.235Z,1.67
2019-05-26T17:23:45.573Z,3.55
2019-05-26T17:53:48.222Z,2.47
2019-05-26T18:23:50.856Z,2.37
2019-05-26T18:53:53.554Z,4.65
2019-05-26T19:23:56.229Z,12.20
2019-05-26T19:53:59.413Z,7.65
2019-05-26T20:24:03.190Z,14.58
2019-05-26T20:54:05.812Z,10.00
2019-05-26T21:24:08.534Z,10.72
2019-05-26T21:54:11.181Z,12.70
2019-05-26T22:24:13.920Z,11.33
2019-05-26T22:54:16.524Z,13.88
2019-05-26T23:24:19.157Z,11.28
2019-05-26T23:54:21.778Z,13.53
